sensor_id;sensor_type;location;lat;lon;timestamp;temperature;humidity
13682;DHT22;6913;49.892;7.936;2023-05-07T00:02:04;14.80;99.90
13682;DHT22;6913;49.892;7.936;2023-05-07T00:04:31;14.70;99.90
13682;DHT22;6913;49.892;7.936;2023-05-07T00:07:02;14.80;99.90
13682;DHT22;6913;49.892;7.936;2023-05-07T00:09:29;14.80;99.90
13682;DHT22;6913;49.892;7.936;2023-05-07T00:11:55;14.90;99.90
13682;DHT22;6913;49.892;7.936;2023-05-07T00:14:22;14.80;99.90
13682;DHT22;6913;49.892;7.936;2023-05-07T00:16:49;14.80;99.90
13682;DHT22;6913;49.892;7.936;2023-05-07T00:19:17;14.80;99.90
13682;DHT22;6913;49.892;7.936;2023-05-07T00:21:44;14.80;99.90
13682;DHT22;6913;49.892;7.936;2023-05-07T00:24:11;14.80;99.90
13682;DHT22;6913;49.892;7.936;2023-05-07T00:26:37;14.80;99.90
13682;DHT22;6913;49.892;7.936;2023-05-07T00:29:04;14.70;99.90
13682;DHT22;6913;49.892;7.936;2023-05-07T00:31:31;14.60;99.90
13682;DHT22;6913;49.892;7.936;2023-05-07T00:33:58;14.50;99.90
13682;DHT22;6913;49.892;7.936;2023-05-07T00:36:26;14.40;99.90
13682;DHT22;6913;49.892;7.936;2023-05-07T00:38:54;14.40;99.90
13682;DHT22;6913;49.892;7.936;2023-05-07T00:41:21;14.40;99.90
13682;DHT22;6913;49.892;7.936;2023-05-07T00:43:48;14.10;99.90
13682;DHT22;6913;49.892;7.936;2023-05-07T00:46:17;14.10;99.90
13682;DHT22;6913;49.892;7.936;2023-05-07T00:48:44;14.20;99.90
13682;DHT22;6913;49.892;7.936;2023-05-07T00:51:11;14.20;99.90
13682;DHT22;6913;49.892;7.936;2023-05-07T00:53:40;14.20;99.90
13682;DHT22;6913;49.892;7.936;2023-05-07T00:56:06;14.20;99.90
13682;DHT22;6913;49.892;7.936;2023-05-07T00:58:33;14.10;99.90
13682;DHT22;6913;49.892;7.936;2023-05-07T01:01:00;14.10;99.90
13682;DHT22;6913;49.892;7.936;2023-05-07T01:03:27;14.00;99.90
13682;DHT22;6913;49.892;7.936;2023-05-07T01:05:54;13.90;99.90
13682;DHT22;6913;49.892;7.936;2023-05-07T01:08:22;13.80;99.90
13682;DHT22;6913;49.892;7.936;2023-05-07T01:10:51;13.60;99.90
13682;DHT22;6913;49.892;7.936;2023-05-07T01:13:19;13.40;99.90
13682;DHT22;6913;49.892;7.936;2023-05-07T01:15:46;13.40;99.90
13682;DHT22;6913;49.892;7.936;2023-05-07T01:18:13;13.40;99.90
13682;DHT22;6913;49.892;7.936;2023-05-07T01:20:40;13.30;99.90
13682;DHT22;6913;49.892;7.936;2023-05-07T01:23:11;13.30;99.90
13682;DHT22;6913;49.892;7.936;2023-05-07T01:25:38;13.30;99.90
13682;DHT22;6913;49.892;7.936;2023-05-07T01:28:04;13.10;99.90
13682;DHT22;6913;49.892;7.936;2023-05-07T01:30:33;12.90;99.90
13682;DHT22;6913;49.892;7.936;2023-05-07T01:33:03;12.80;99.90
13682;DHT22;6913;49.892;7.936;2023-05-07T01:35:36;12.90;99.90
13682;DHT22;6913;49.892;7.936;2023-05-07T01:38:05;12.90;99.90
13682;DHT22;6913;49.892;7.936;2023-05-07T01:40:33;12.90;99.90
13682;DHT22;6913;49.892;7.936;2023-05-07T01:43:01;12.80;99.90
13682;DHT22;6913;49.892;7.936;2023-05-07T01:45:28;12.80;99.90
13682;DHT22;6913;49.892;7.936;2023-05-07T01:47:58;12.90;99.90
13682;DHT22;6913;49.892;7.936;2023-05-07T01:50:25;12.90;99.90
13682;DHT22;6913;49.892;7.936;2023-05-07T01:52:52;12.80;99.90
13682;DHT22;6913;49.892;7.936;2023-05-07T01:55:19;12.80;99.90
13682;DHT22;6913;49.892;7.936;2023-05-07T01:57:47;12.60;99.90
13682;DHT22;6913;49.892;7.936;2023-05-07T02:00:15;12.40;99.90
13682;DHT22;6913;49.892;7.936;2023-05-07T02:02:43;12.30;99.90
13682;DHT22;6913;49.892;7.936;2023-05-07T02:05:09;12.30;99.90
13682;DHT22;6913;49.892;7.936;2023-05-07T02:07:36;12.30;99.90
13682;DHT22;6913;49.892;7.936;2023-05-07T02:10:03;12.40;99.90
13682;DHT22;6913;49.892;7.936;2023-05-07T02:12:30;12.40;99.90
13682;DHT22;6913;49.892;7.936;2023-05-07T02:14:58;12.40;99.90
13682;DHT22;6913;49.892;7.936;2023-05-07T02:17:25;12.20;99.90
13682;DHT22;6913;49.892;7.936;2023-05-07T02:19:52;12.20;99.90
13682;DHT22;6913;49.892;7.936;2023-05-07T02:22:19;12.20;99.90
13682;DHT22;6913;49.892;7.936;2023-05-07T02:24:45;12.20;99.90
13682;DHT22;6913;49.892;7.936;2023-05-07T02:27:12;12.20;99.90
13682;DHT22;6913;49.892;7.936;2023-05-07T02:29:39;12.30;99.90
13682;DHT22;6913;49.892;7.936;2023-05-07T02:32:07;12.30;99.90
13682;DHT22;6913;49.892;7.936;2023-05-07T02:34:34;12.30;99.90
13682;DHT22;6913;49.892;7.936;2023-05-07T02:37:00;12.30;99.90
13682;DHT22;6913;49.892;7.936;2023-05-07T02:39:27;12.30;99.90
13682;DHT22;6913;49.892;7.936;2023-05-07T02:41:54;12.30;99.90
13682;DHT22;6913;49.892;7.936;2023-05-07T02:44:21;12.30;99.90
13682;DHT22;6913;49.892;7.936;2023-05-07T02:46:47;12.30;99.90
13682;DHT22;6913;49.892;7.936;2023-05-07T02:49:16;12.30;99.90
13682;DHT22;6913;49.892;7.936;2023-05-07T02:51:42;12.30;99.90
13682;DHT22;6913;49.892;7.936;2023-05-07T02:54:09;12.20;99.90
13682;DHT22;6913;49.892;7.936;2023-05-07T02:56:36;12.10;99.90
13682;DHT22;6913;49.892;7.936;2023-05-07T02:59:03;12.20;99.90
13682;DHT22;6913;49.892;7.936;2023-05-07T03:01:29;12.20;99.90
13682;DHT22;6913;49.892;7.936;2023-05-07T03:03:56;12.30;99.90
13682;DHT22;6913;49.892;7.936;2023-05-07T03:06:24;12.30;99.90
13682;DHT22;6913;49.892;7.936;2023-05-07T03:08:51;12.40;99.90
13682;DHT22;6913;49.892;7.936;2023-05-07T03:11:18;12.40;99.90
13682;DHT22;6913;49.892;7.936;2023-05-07T03:13:45;12.40;99.90
13682;DHT22;6913;49.892;7.936;2023-05-07T03:16:12;12.40;99.90
13682;DHT22;6913;49.892;7.936;2023-05-07T03:18:38;12.40;99.90
13682;DHT22;6913;49.892;7.936;2023-05-07T03:21:05;12.50;99.90
13682;DHT22;6913;49.892;7.936;2023-05-07T03:23:33;12.40;99.90
13682;DHT22;6913;49.892;7.936;2023-05-07T03:26:00;12.60;99.90
13682;DHT22;6913;49.892;7.936;2023-05-07T03:28:27;12.50;99.90
13682;DHT22;6913;49.892;7.936;2023-05-07T03:30:54;12.50;99.90
13682;DHT22;6913;49.892;7.936;2023-05-07T03:33:20;12.60;99.90
13682;DHT22;6913;49.892;7.936;2023-05-07T03:35:47;12.60;99.90
13682;DHT22;6913;49.892;7.936;2023-05-07T03:38:14;12.50;99.90
13682;DHT22;6913;49.892;7.936;2023-05-07T03:40:42;12.50;99.90
13682;DHT22;6913;49.892;7.936;2023-05-07T03:43:09;12.50;99.90
13682;DHT22;6913;49.892;7.936;2023-05-07T03:45:35;12.50;99.90
13682;DHT22;6913;49.892;7.936;2023-05-07T03:48:03;12.40;99.90
13682;DHT22;6913;49.892;7.936;2023-05-07T03:50:29;12.30;99.90
13682;DHT22;6913;49.892;7.936;2023-05-07T03:52:56;12.30;99.90
13682;DHT22;6913;49.892;7.936;2023-05-07T03:55:23;12.50;99.90
13682;DHT22;6913;49.892;7.936;2023-05-07T03:57:52;12.30;99.90
13682;DHT22;6913;49.892;7.936;2023-05-07T04:00:18;12.00;99.90
13682;DHT22;6913;49.892;7.936;2023-05-07T04:02:47;12.00;99.90
13682;DHT22;6913;49.892;7.936;2023-05-07T04:05:14;12.00;99.90
13682;DHT22;6913;49.892;7.936;2023-05-07T04:07:41;12.00;99.90
13682;DHT22;6913;49.892;7.936;2023-05-07T04:10:08;12.10;99.90
13682;DHT22;6913;49.892;7.936;2023-05-07T04:12:35;12.10;99.90
13682;DHT22;6913;49.892;7.936;2023-05-07T04:15:04;12.10;99.90
13682;DHT22;6913;49.892;7.936;2023-05-07T04:17:31;12.20;99.90
13682;DHT22;6913;49.892;7.936;2023-05-07T04:19:57;12.20;99.90
13682;DHT22;6913;49.892;7.936;2023-05-07T04:22:24;12.20;99.90
13682;DHT22;6913;49.892;7.936;2023-05-07T04:24:51;12.30;99.90
13682;DHT22;6913;49.892;7.936;2023-05-07T04:27:18;12.30;99.90
13682;DHT22;6913;49.892;7.936;2023-05-07T04:29:45;12.40;99.90
13682;DHT22;6913;49.892;7.936;2023-05-07T04:32:14;12.40;99.90
13682;DHT22;6913;49.892;7.936;2023-05-07T04:34:41;12.50;99.90
13682;DHT22;6913;49.892;7.936;2023-05-07T04:37:08;12.50;99.90
13682;DHT22;6913;49.892;7.936;2023-05-07T04:39:35;12.50;99.90
13682;DHT22;6913;49.892;7.936;2023-05-07T04:42:02;12.50;99.90
13682;DHT22;6913;49.892;7.936;2023-05-07T04:44:29;12.60;99.90
13682;DHT22;6913;49.892;7.936;2023-05-07T04:46:56;12.60;99.90
13682;DHT22;6913;49.892;7.936;2023-05-07T04:49:24;12.70;99.90
13682;DHT22;6913;49.892;7.936;2023-05-07T04:51:51;12.70;99.90
13682;DHT22;6913;49.892;7.936;2023-05-07T04:54:18;12.70;99.90
13682;DHT22;6913;49.892;7.936;2023-05-07T04:56:45;12.60;99.90
13682;DHT22;6913;49.892;7.936;2023-05-07T04:59:11;12.60;99.90
13682;DHT22;6913;49.892;7.936;2023-05-07T05:01:38;12.70;99.90
13682;DHT22;6913;49.892;7.936;2023-05-07T05:04:05;12.70;99.90
13682;DHT22;6913;49.892;7.936;2023-05-07T05:06:34;12.70;99.90
13682;DHT22;6913;49.892;7.936;2023-05-07T05:09:00;12.70;99.90
13682;DHT22;6913;49.892;7.936;2023-05-07T05:11:28;12.80;99.90
13682;DHT22;6913;49.892;7.936;2023-05-07T05:13:55;12.80;99.90
13682;DHT22;6913;49.892;7.936;2023-05-07T05:16:22;12.90;99.90
13682;DHT22;6913;49.892;7.936;2023-05-07T05:18:49;13.00;99.90
13682;DHT22;6913;49.892;7.936;2023-05-07T05:21:17;13.30;99.90
13682;DHT22;6913;49.892;7.936;2023-05-07T05:23:45;13.40;99.90
13682;DHT22;6913;49.892;7.936;2023-05-07T05:26:12;13.30;99.90
13682;DHT22;6913;49.892;7.936;2023-05-07T05:28:39;13.80;99.90
13682;DHT22;6913;49.892;7.936;2023-05-07T05:31:05;13.90;99.90
13682;DHT22;6913;49.892;7.936;2023-05-07T05:33:32;14.20;99.90
13682;DHT22;6913;49.892;7.936;2023-05-07T05:35:59;14.60;99.90
13682;DHT22;6913;49.892;7.936;2023-05-07T05:38:26;15.00;99.90
13682;DHT22;6913;49.892;7.936;2023-05-07T05:40:54;15.20;99.90
13682;DHT22;6913;49.892;7.936;2023-05-07T05:43:21;15.30;99.90
13682;DHT22;6913;49.892;7.936;2023-05-07T05:45:48;15.20;99.90
13682;DHT22;6913;49.892;7.936;2023-05-07T05:48:14;15.20;99.90
13682;DHT22;6913;49.892;7.936;2023-05-07T05:50:42;15.20;99.90
13682;DHT22;6913;49.892;7.936;2023-05-07T05:53:08;15.30;99.90
13682;DHT22;6913;49.892;7.936;2023-05-07T05:55:35;15.60;99.90
13682;DHT22;6913;49.892;7.936;2023-05-07T05:58:03;15.30;99.90
13682;DHT22;6913;49.892;7.936;2023-05-07T06:00:30;15.30;99.90
13682;DHT22;6913;49.892;7.936;2023-05-07T06:02:57;15.40;99.90
13682;DHT22;6913;49.892;7.936;2023-05-07T06:05:24;15.30;99.90
13682;DHT22;6913;49.892;7.936;2023-05-07T06:07:50;15.40;99.90
13682;DHT22;6913;49.892;7.936;2023-05-07T06:10:17;15.40;99.90
13682;DHT22;6913;49.892;7.936;2023-05-07T06:12:44;15.40;99.90
13682;DHT22;6913;49.892;7.936;2023-05-07T06:15:12;15.50;99.90
13682;DHT22;6913;49.892;7.936;2023-05-07T06:17:39;15.60;99.90
13682;DHT22;6913;49.892;7.936;2023-05-07T06:20:07;15.70;99.90
13682;DHT22;6913;49.892;7.936;2023-05-07T06:22:34;15.80;99.90
13682;DHT22;6913;49.892;7.936;2023-05-07T06:25:01;16.00;99.90
13682;DHT22;6913;49.892;7.936;2023-05-07T06:27:27;16.10;99.90
13682;DHT22;6913;49.892;7.936;2023-05-07T06:29:54;16.50;99.90
13682;DHT22;6913;49.892;7.936;2023-05-07T06:32:22;16.10;99.90
13682;DHT22;6913;49.892;7.936;2023-05-07T06:34:49;16.30;99.90
13682;DHT22;6913;49.892;7.936;2023-05-07T06:37:16;16.40;99.90
13682;DHT22;6913;49.892;7.936;2023-05-07T06:39:43;16.40;99.90
13682;DHT22;6913;49.892;7.936;2023-05-07T06:42:09;16.50;99.90
13682;DHT22;6913;49.892;7.936;2023-05-07T06:44:36;16.30;99.90
13682;DHT22;6913;49.892;7.936;2023-05-07T06:47:03;16.70;99.90
13682;DHT22;6913;49.892;7.936;2023-05-07T06:49:32;16.40;99.90
13682;DHT22;6913;49.892;7.936;2023-05-07T06:51:58;16.50;99.90
13682;DHT22;6913;49.892;7.936;2023-05-07T06:54:25;16.30;99.90
13682;DHT22;6913;49.892;7.936;2023-05-07T06:56:52;16.40;99.90
13682;DHT22;6913;49.892;7.936;2023-05-07T06:59:19;16.40;99.90
13682;DHT22;6913;49.892;7.936;2023-05-07T07:01:45;16.60;99.90
13682;DHT22;6913;49.892;7.936;2023-05-07T07:04:12;16.60;99.90
13682;DHT22;6913;49.892;7.936;2023-05-07T07:06:40;16.60;99.90
13682;DHT22;6913;49.892;7.936;2023-05-07T07:09:07;16.70;99.90
13682;DHT22;6913;49.892;7.936;2023-05-07T07:11:34;16.70;99.90
13682;DHT22;6913;49.892;7.936;2023-05-07T07:14:01;16.70;99.90
13682;DHT22;6913;49.892;7.936;2023-05-07T07:16:28;16.80;99.90
13682;DHT22;6913;49.892;7.936;2023-05-07T07:18:54;16.90;99.90
13682;DHT22;6913;49.892;7.936;2023-05-07T07:21:21;17.10;99.90
13682;DHT22;6913;49.892;7.936;2023-05-07T07:23:49;17.50;99.90
13682;DHT22;6913;49.892;7.936;2023-05-07T07:26:17;17.40;99.90
13682;DHT22;6913;49.892;7.936;2023-05-07T07:28:44;17.20;99.90
13682;DHT22;6913;49.892;7.936;2023-05-07T07:31:11;17.30;99.90
13682;DHT22;6913;49.892;7.936;2023-05-07T07:33:38;17.40;99.90
13682;DHT22;6913;49.892;7.936;2023-05-07T07:36:06;17.60;99.90
13682;DHT22;6913;49.892;7.936;2023-05-07T07:38:33;17.60;99.90
13682;DHT22;6913;49.892;7.936;2023-05-07T07:41:01;17.70;99.90
13682;DHT22;6913;49.892;7.936;2023-05-07T07:43:28;17.50;99.90
13682;DHT22;6913;49.892;7.936;2023-05-07T07:45:55;17.70;99.90
13682;DHT22;6913;49.892;7.936;2023-05-07T07:48:22;17.70;99.90
13682;DHT22;6913;49.892;7.936;2023-05-07T07:50:49;17.90;99.90
13682;DHT22;6913;49.892;7.936;2023-05-07T07:53:16;17.90;99.90
13682;DHT22;6913;49.892;7.936;2023-05-07T07:55:43;17.70;99.90
13682;DHT22;6913;49.892;7.936;2023-05-07T07:58:11;17.90;99.90
13682;DHT22;6913;49.892;7.936;2023-05-07T08:00:38;18.00;99.90
13682;DHT22;6913;49.892;7.936;2023-05-07T08:03:05;18.40;99.90
13682;DHT22;6913;49.892;7.936;2023-05-07T08:05:32;18.80;99.90
13682;DHT22;6913;49.892;7.936;2023-05-07T08:07:59;19.00;99.90
13682;DHT22;6913;49.892;7.936;2023-05-07T08:10:26;18.70;99.90
13682;DHT22;6913;49.892;7.936;2023-05-07T08:12:53;19.00;99.90
13682;DHT22;6913;49.892;7.936;2023-05-07T08:15:21;19.10;99.90
13682;DHT22;6913;49.892;7.936;2023-05-07T08:17:48;19.00;99.90
13682;DHT22;6913;49.892;7.936;2023-05-07T08:20:14;18.50;99.90
13682;DHT22;6913;49.892;7.936;2023-05-07T08:22:41;18.50;99.90
13682;DHT22;6913;49.892;7.936;2023-05-07T08:25:09;18.40;99.90
13682;DHT22;6913;49.892;7.936;2023-05-07T08:27:35;18.10;99.90
13682;DHT22;6913;49.892;7.936;2023-05-07T08:30:03;18.30;99.90
13682;DHT22;6913;49.892;7.936;2023-05-07T08:32:32;18.40;99.90
13682;DHT22;6913;49.892;7.936;2023-05-07T08:34:58;18.50;99.90
13682;DHT22;6913;49.892;7.936;2023-05-07T08:37:25;18.60;99.90
13682;DHT22;6913;49.892;7.936;2023-05-07T08:39:52;18.60;99.90
13682;DHT22;6913;49.892;7.936;2023-05-07T08:42:20;18.40;99.90
13682;DHT22;6913;49.892;7.936;2023-05-07T08:44:48;18.40;99.90
13682;DHT22;6913;49.892;7.936;2023-05-07T08:47:18;18.30;99.90
13682;DHT22;6913;49.892;7.936;2023-05-07T08:49:47;18.40;99.90
13682;DHT22;6913;49.892;7.936;2023-05-07T08:52:15;18.60;99.90
13682;DHT22;6913;49.892;7.936;2023-05-07T08:54:42;18.70;99.90
13682;DHT22;6913;49.892;7.936;2023-05-07T08:57:09;18.60;99.90
13682;DHT22;6913;49.892;7.936;2023-05-07T08:59:36;19.30;99.90
13682;DHT22;6913;49.892;7.936;2023-05-07T09:02:03;19.40;99.90
13682;DHT22;6913;49.892;7.936;2023-05-07T09:04:30;19.50;99.90
13682;DHT22;6913;49.892;7.936;2023-05-07T09:06:59;19.20;99.90
13682;DHT22;6913;49.892;7.936;2023-05-07T09:09:32;19.30;99.90
13682;DHT22;6913;49.892;7.936;2023-05-07T09:11:59;19.60;99.90
13682;DHT22;6913;49.892;7.936;2023-05-07T09:14:27;19.60;99.90
13682;DHT22;6913;49.892;7.936;2023-05-07T09:16:54;19.50;97.30
13682;DHT22;6913;49.892;7.936;2023-05-07T09:19:22;19.30;99.90
13682;DHT22;6913;49.892;7.936;2023-05-07T09:21:49;19.70;99.90
13682;DHT22;6913;49.892;7.936;2023-05-07T09:24:17;19.70;99.90
13682;DHT22;6913;49.892;7.936;2023-05-07T09:26:44;19.70;99.90
13682;DHT22;6913;49.892;7.936;2023-05-07T09:29:11;19.90;99.90
13682;DHT22;6913;49.892;7.936;2023-05-07T09:31:38;19.90;99.90
13682;DHT22;6913;49.892;7.936;2023-05-07T09:34:05;20.00;75.50
13682;DHT22;6913;49.892;7.936;2023-05-07T09:36:32;20.10;97.60
13682;DHT22;6913;49.892;7.936;2023-05-07T09:38:59;20.00;94.30
13682;DHT22;6913;49.892;7.936;2023-05-07T09:41:30;20.00;99.90
13682;DHT22;6913;49.892;7.936;2023-05-07T09:43:58;20.30;99.90
13682;DHT22;6913;49.892;7.936;2023-05-07T09:46:29;20.00;70.60
13682;DHT22;6913;49.892;7.936;2023-05-07T09:48:57;20.20;99.90
13682;DHT22;6913;49.892;7.936;2023-05-07T09:51:28;20.30;91.80
13682;DHT22;6913;49.892;7.936;2023-05-07T09:53:56;20.40;99.90
13682;DHT22;6913;49.892;7.936;2023-05-07T09:56:25;20.50;91.50
13682;DHT22;6913;49.892;7.936;2023-05-07T09:58:54;20.50;92.50
13682;DHT22;6913;49.892;7.936;2023-05-07T10:01:24;20.20;94.00
13682;DHT22;6913;49.892;7.936;2023-05-07T10:03:52;20.20;90.30
13682;DHT22;6913;49.892;7.936;2023-05-07T10:06:20;20.20;99.90
13682;DHT22;6913;49.892;7.936;2023-05-07T10:08:47;20.30;83.90
13682;DHT22;6913;49.892;7.936;2023-05-07T10:11:15;20.50;99.90
13682;DHT22;6913;49.892;7.936;2023-05-07T10:13:43;20.60;85.50
13682;DHT22;6913;49.892;7.936;2023-05-07T10:16:11;20.40;73.70
13682;DHT22;6913;49.892;7.936;2023-05-07T10:18:38;20.60;99.90
13682;DHT22;6913;49.892;7.936;2023-05-07T10:21:08;20.50;94.60
13682;DHT22;6913;49.892;7.936;2023-05-07T10:23:36;20.90;99.90
13682;DHT22;6913;49.892;7.936;2023-05-07T10:26:05;21.40;85.30
13682;DHT22;6913;49.892;7.936;2023-05-07T10:28:36;21.60;85.90
13682;DHT22;6913;49.892;7.936;2023-05-07T10:31:23;21.60;47.70
13682;DHT22;6913;49.892;7.936;2023-05-07T10:36:22;21.60;21.60
13682;DHT22;6913;49.892;7.936;2023-05-07T10:38:50;21.70;43.40
13682;DHT22;6913;49.892;7.936;2023-05-07T10:41:17;21.50;23.60
13682;DHT22;6913;49.892;7.936;2023-05-07T10:43:45;21.70;79.20
13682;DHT22;6913;49.892;7.936;2023-05-07T10:46:15;21.80;65.30
13682;DHT22;6913;49.892;7.936;2023-05-07T10:49:06;21.40;92.50
13682;DHT22;6913;49.892;7.936;2023-05-07T10:51:33;21.80;67.00
13682;DHT22;6913;49.892;7.936;2023-05-07T10:54:20;21.80;3.10
13682;DHT22;6913;49.892;7.936;2023-05-07T10:56:47;21.80;48.70
13682;DHT22;6913;49.892;7.936;2023-05-07T10:59:37;21.50;59.70
13682;DHT22;6913;49.892;7.936;2023-05-07T11:02:09;21.90;50.60
13682;DHT22;6913;49.892;7.936;2023-05-07T11:07:33;22.40;1.00
13682;DHT22;6913;49.892;7.936;2023-05-07T11:10:05;22.30;29.80
13682;DHT22;6913;49.892;7.936;2023-05-07T11:12:52;22.20;5.40
13682;DHT22;6913;49.892;7.936;2023-05-07T11:15:39;21.60;1.00
13682;DHT22;6913;49.892;7.936;2023-05-07T11:18:09;21.60;42.80
13682;DHT22;6913;49.892;7.936;2023-05-07T11:21:00;22.00;1.00
13682;DHT22;6913;49.892;7.936;2023-05-07T11:23:55;21.90;1.00
13682;DHT22;6913;49.892;7.936;2023-05-07T11:26:23;21.90;30.30
13682;DHT22;6913;49.892;7.936;2023-05-07T11:31:21;22.10;39.40
13682;DHT22;6913;49.892;7.936;2023-05-07T11:33:51;22.50;1.00
13682;DHT22;6913;49.892;7.936;2023-05-07T11:36:19;22.70;1.00
13682;DHT22;6913;49.892;7.936;2023-05-07T11:38:46;22.60;1.00
13682;DHT22;6913;49.892;7.936;2023-05-07T11:41:13;22.50;1.00
13682;DHT22;6913;49.892;7.936;2023-05-07T11:43:54;22.20;1.00
13682;DHT22;6913;49.892;7.936;2023-05-07T11:46:21;22.30;21.70
13682;DHT22;6913;49.892;7.936;2023-05-07T11:48:49;22.70;1.00
13682;DHT22;6913;49.892;7.936;2023-05-07T11:51:20;22.30;1.00
13682;DHT22;6913;49.892;7.936;2023-05-07T11:53:47;22.50;1.00
13682;DHT22;6913;49.892;7.936;2023-05-07T11:56:17;22.20;1.00
13682;DHT22;6913;49.892;7.936;2023-05-07T11:58:45;22.70;5.30
13682;DHT22;6913;49.892;7.936;2023-05-07T12:01:12;22.80;29.90
13682;DHT22;6913;49.892;7.936;2023-05-07T12:03:40;23.00;1.00
13682;DHT22;6913;49.892;7.936;2023-05-07T12:06:10;22.40;1.00
13682;DHT22;6913;49.892;7.936;2023-05-07T12:08:38;22.50;1.00
13682;DHT22;6913;49.892;7.936;2023-05-07T12:11:08;22.90;1.00
13682;DHT22;6913;49.892;7.936;2023-05-07T12:13:37;23.20;1.00
13682;DHT22;6913;49.892;7.936;2023-05-07T12:16:05;23.60;23.10
13682;DHT22;6913;49.892;7.936;2023-05-07T12:21:00;22.70;1.00
13682;DHT22;6913;49.892;7.936;2023-05-07T12:23:28;22.50;5.30
13682;DHT22;6913;49.892;7.936;2023-05-07T12:25:55;22.70;1.00
13682;DHT22;6913;49.892;7.936;2023-05-07T12:28:22;23.20;1.00
13682;DHT22;6913;49.892;7.936;2023-05-07T12:30:50;23.00;1.00
13682;DHT22;6913;49.892;7.936;2023-05-07T12:33:18;23.00;1.00
13682;DHT22;6913;49.892;7.936;2023-05-07T12:35:47;23.10;1.00
13682;DHT22;6913;49.892;7.936;2023-05-07T12:38:17;23.30;1.00
13682;DHT22;6913;49.892;7.936;2023-05-07T12:40:47;23.00;1.00
13682;DHT22;6913;49.892;7.936;2023-05-07T12:43:16;22.70;1.00
13682;DHT22;6913;49.892;7.936;2023-05-07T12:45:44;22.50;1.00
13682;DHT22;6913;49.892;7.936;2023-05-07T12:48:12;22.80;1.00
13682;DHT22;6913;49.892;7.936;2023-05-07T12:50:38;23.50;1.00
13682;DHT22;6913;49.892;7.936;2023-05-07T12:53:06;23.90;1.00
13682;DHT22;6913;49.892;7.936;2023-05-07T12:55:41;23.70;1.00
13682;DHT22;6913;49.892;7.936;2023-05-07T12:58:15;23.50;1.00
13682;DHT22;6913;49.892;7.936;2023-05-07T13:00:42;23.50;99.90
13682;DHT22;6913;49.892;7.936;2023-05-07T13:03:10;23.30;1.00
13682;DHT22;6913;49.892;7.936;2023-05-07T13:05:37;23.70;1.00
13682;DHT22;6913;49.892;7.936;2023-05-07T13:08:04;24.00;1.00
13682;DHT22;6913;49.892;7.936;2023-05-07T13:10:31;24.00;1.00
13682;DHT22;6913;49.892;7.936;2023-05-07T13:12:59;23.50;1.00
13682;DHT22;6913;49.892;7.936;2023-05-07T13:15:27;23.50;1.00
13682;DHT22;6913;49.892;7.936;2023-05-07T13:17:54;23.30;1.00
13682;DHT22;6913;49.892;7.936;2023-05-07T13:20:21;23.60;99.90
13682;DHT22;6913;49.892;7.936;2023-05-07T13:22:48;24.00;1.00
13682;DHT22;6913;49.892;7.936;2023-05-07T13:25:15;24.30;99.90
13682;DHT22;6913;49.892;7.936;2023-05-07T13:27:42;23.80;99.90
13682;DHT22;6913;49.892;7.936;2023-05-07T13:30:09;24.00;1.00
13682;DHT22;6913;49.892;7.936;2023-05-07T13:32:37;23.80;1.00
13682;DHT22;6913;49.892;7.936;2023-05-07T13:35:04;24.00;1.00
13682;DHT22;6913;49.892;7.936;2023-05-07T13:37:31;23.90;1.00
13682;DHT22;6913;49.892;7.936;2023-05-07T13:39:58;24.20;91.90
13682;DHT22;6913;49.892;7.936;2023-05-07T13:42:25;23.90;83.30
13682;DHT22;6913;49.892;7.936;2023-05-07T13:44:51;23.50;99.90
13682;DHT22;6913;49.892;7.936;2023-05-07T13:47:18;23.60;99.90
13682;DHT22;6913;49.892;7.936;2023-05-07T13:49:46;23.30;1.00
13682;DHT22;6913;49.892;7.936;2023-05-07T13:52:15;23.20;1.00
13682;DHT22;6913;49.892;7.936;2023-05-07T13:54:42;23.10;99.90
13682;DHT22;6913;49.892;7.936;2023-05-07T13:57:08;23.40;99.90
13682;DHT22;6913;49.892;7.936;2023-05-07T13:59:35;23.30;1.00
13682;DHT22;6913;49.892;7.936;2023-05-07T14:02:02;23.50;1.00
13682;DHT22;6913;49.892;7.936;2023-05-07T14:04:30;23.60;99.90
13682;DHT22;6913;49.892;7.936;2023-05-07T14:06:58;23.50;1.00
13682;DHT22;6913;49.892;7.936;2023-05-07T14:09:25;23.40;99.90
13682;DHT22;6913;49.892;7.936;2023-05-07T14:11:51;23.20;99.90
13682;DHT22;6913;49.892;7.936;2023-05-07T14:14:18;23.20;1.00
13682;DHT22;6913;49.892;7.936;2023-05-07T14:16:45;22.90;99.90
13682;DHT22;6913;49.892;7.936;2023-05-07T14:19:12;23.10;1.00
13682;DHT22;6913;49.892;7.936;2023-05-07T14:21:39;23.20;99.90
13682;DHT22;6913;49.892;7.936;2023-05-07T14:24:07;23.40;1.00
13682;DHT22;6913;49.892;7.936;2023-05-07T14:26:35;23.30;99.90
13682;DHT22;6913;49.892;7.936;2023-05-07T14:29:02;23.20;1.00
13682;DHT22;6913;49.892;7.936;2023-05-07T14:31:29;23.70;1.00
13682;DHT22;6913;49.892;7.936;2023-05-07T14:33:56;23.40;1.00
13682;DHT22;6913;49.892;7.936;2023-05-07T14:36:24;23.40;99.90
13682;DHT22;6913;49.892;7.936;2023-05-07T14:38:51;23.40;1.00
13682;DHT22;6913;49.892;7.936;2023-05-07T14:41:21;23.00;1.00
13682;DHT22;6913;49.892;7.936;2023-05-07T14:43:48;23.20;99.90
13682;DHT22;6913;49.892;7.936;2023-05-07T14:46:16;23.40;1.00
13682;DHT22;6913;49.892;7.936;2023-05-07T14:48:43;23.20;99.90
13682;DHT22;6913;49.892;7.936;2023-05-07T14:51:11;23.20;99.90
13682;DHT22;6913;49.892;7.936;2023-05-07T14:53:38;23.20;1.00
13682;DHT22;6913;49.892;7.936;2023-05-07T14:56:05;23.10;1.00
13682;DHT22;6913;49.892;7.936;2023-05-07T14:58:33;23.20;99.90
13682;DHT22;6913;49.892;7.936;2023-05-07T15:01:00;23.30;1.00
13682;DHT22;6913;49.892;7.936;2023-05-07T15:03:28;23.40;85.60
13682;DHT22;6913;49.892;7.936;2023-05-07T15:05:54;23.40;1.00
13682;DHT22;6913;49.892;7.936;2023-05-07T15:08:21;23.20;18.10
13682;DHT22;6913;49.892;7.936;2023-05-07T15:10:48;23.30;1.00
13682;DHT22;6913;49.892;7.936;2023-05-07T15:13:15;23.60;99.90
13682;DHT22;6913;49.892;7.936;2023-05-07T15:15:44;23.50;1.00
13682;DHT22;6913;49.892;7.936;2023-05-07T15:18:11;23.90;99.90
13682;DHT22;6913;49.892;7.936;2023-05-07T15:20:38;24.10;1.00
13682;DHT22;6913;49.892;7.936;2023-05-07T15:23:06;24.20;1.00
13682;DHT22;6913;49.892;7.936;2023-05-07T15:25:35;23.80;99.90
13682;DHT22;6913;49.892;7.936;2023-05-07T15:28:02;23.60;99.90
13682;DHT22;6913;49.892;7.936;2023-05-07T15:30:29;23.70;1.00
13682;DHT22;6913;49.892;7.936;2023-05-07T15:32:57;23.20;99.90
13682;DHT22;6913;49.892;7.936;2023-05-07T15:35:24;23.40;1.00
13682;DHT22;6913;49.892;7.936;2023-05-07T15:37:51;23.60;1.00
13682;DHT22;6913;49.892;7.936;2023-05-07T15:40:18;23.60;1.00
13682;DHT22;6913;49.892;7.936;2023-05-07T15:42:45;23.40;1.00
13682;DHT22;6913;49.892;7.936;2023-05-07T15:45:12;23.30;99.90
13682;DHT22;6913;49.892;7.936;2023-05-07T15:47:39;23.40;99.90
13682;DHT22;6913;49.892;7.936;2023-05-07T15:50:08;23.60;1.00
13682;DHT22;6913;49.892;7.936;2023-05-07T15:52:35;23.60;99.90
13682;DHT22;6913;49.892;7.936;2023-05-07T15:55:01;23.60;1.00
13682;DHT22;6913;49.892;7.936;2023-05-07T15:57:29;23.40;1.00
13682;DHT22;6913;49.892;7.936;2023-05-07T15:59:56;22.90;1.00
13682;DHT22;6913;49.892;7.936;2023-05-07T16:02:23;22.00;1.00
13682;DHT22;6913;49.892;7.936;2023-05-07T16:04:50;21.70;1.00